sensor_id;sensor_type;location;lat;lon;timestamp;pressure;altitude;pressure_sealevel;temperature;humidity
36138;BME280;67787;50.074;21.904;2023-12-22T00:00:47;95918.39;;;3.27;78.46
36138;BME280;67787;50.074;21.904;2023-12-22T00:03:36;95918.04;;;3.25;78.91
36138;BME280;67787;50.074;21.904;2023-12-22T00:06:03;95917.92;;;3.23;78.75
36138;BME280;67787;50.074;21.904;2023-12-22T00:08:31;95920.18;;;3.21;78.52
36138;BME280;67787;50.074;21.904;2023-12-22T00:10:59;95921.13;;;3.20;78.80
36138;BME280;67787;50.074;21.904;2023-12-22T00:13:27;95928.53;;;3.19;78.71
36138;BME280;67787;50.074;21.904;2023-12-22T00:15:55;95922.91;;;3.19;78.87
36138;BME280;67787;50.074;21.904;2023-12-22T00:18:23;95917.15;;;3.20;78.59
36138;BME280;67787;50.074;21.904;2023-12-22T00:20:51;95921.02;;;3.21;78.86
36138;BME280;67787;50.074;21.904;2023-12-22T00:23:19;95923.11;;;3.23;78.80
36138;BME280;67787;50.074;21.904;2023-12-22T00:25:47;95929.23;;;3.25;79.17
36138;BME280;67787;50.074;21.904;2023-12-22T00:28:14;95925.02;;;3.25;79.02
36138;BME280;67787;50.074;21.904;2023-12-22T00:30:42;95925.52;;;3.27;78.92
36138;BME280;67787;50.074;21.904;2023-12-22T00:33:10;95923.15;;;3.30;78.83
36138;BME280;67787;50.074;21.904;2023-12-22T00:35:38;95928.98;;;3.33;78.84
36138;BME280;67787;50.074;21.904;2023-12-22T00:38:06;95940.59;;;3.37;78.82
36138;BME280;67787;50.074;21.904;2023-12-22T00:40:34;95954.35;;;3.39;78.79
36138;BME280;67787;50.074;21.904;2023-12-22T00:43:02;95958.88;;;3.44;78.66
36138;BME280;67787;50.074;21.904;2023-12-22T00:45:30;95967.82;;;3.47;78.64
36138;BME280;67787;50.074;21.904;2023-12-22T00:47:58;95970.98;;;3.49;78.76
36138;BME280;67787;50.074;21.904;2023-12-22T00:50:26;95971.09;;;3.51;78.95
36138;BME280;67787;50.074;21.904;2023-12-22T00:52:53;95971.14;;;3.55;78.97
36138;BME280;67787;50.074;21.904;2023-12-22T00:55:21;95974.25;;;3.57;79.16
36138;BME280;67787;50.074;21.904;2023-12-22T00:57:49;95978.17;;;3.58;79.29
36138;BME280;67787;50.074;21.904;2023-12-22T01:00:17;95979.56;;;3.60;78.59
36138;BME280;67787;50.074;21.904;2023-12-22T01:02:45;95979.17;;;3.63;79.07
36138;BME280;67787;50.074;21.904;2023-12-22T01:05:13;95967.73;;;3.63;79.09
36138;BME280;67787;50.074;21.904;2023-12-22T01:07:42;95966.30;;;3.64;79.11
36138;BME280;67787;50.074;21.904;2023-12-22T01:10:10;95970.31;;;3.66;79.01
36138;BME280;67787;50.074;21.904;2023-12-22T01:12:37;95968.48;;;3.68;78.64
36138;BME280;67787;50.074;21.904;2023-12-22T01:15:06;95965.89;;;3.71;78.71
36138;BME280;67787;50.074;21.904;2023-12-22T01:17:34;95967.42;;;3.74;78.75
36138;BME280;67787;50.074;21.904;2023-12-22T01:20:02;95964.33;;;3.75;78.75
36138;BME280;67787;50.074;21.904;2023-12-22T01:22:30;95965.92;;;3.77;78.81
36138;BME280;67787;50.074;21.904;2023-12-22T01:25:00;95961.97;;;3.78;78.82
36138;BME280;67787;50.074;21.904;2023-12-22T01:27:29;95957.09;;;3.80;78.70
36138;BME280;67787;50.074;21.904;2023-12-22T01:29:57;95942.80;;;3.80;78.73
36138;BME280;67787;50.074;21.904;2023-12-22T01:32:24;95951.80;;;3.82;78.84
36138;BME280;67787;50.074;21.904;2023-12-22T01:34:52;95938.95;;;3.82;78.86
36138;BME280;67787;50.074;21.904;2023-12-22T01:37:20;95927.82;;;3.83;79.10
36138;BME280;67787;50.074;21.904;2023-12-22T01:39:48;95929.27;;;3.84;79.05
36138;BME280;67787;50.074;21.904;2023-12-22T01:42:16;95930.36;;;3.86;78.72
36138;BME280;67787;50.074;21.904;2023-12-22T01:44:44;95930.98;;;3.87;78.66
36138;BME280;67787;50.074;21.904;2023-12-22T01:47:12;95935.61;;;3.90;78.89
36138;BME280;67787;50.074;21.904;2023-12-22T01:49:40;95934.49;;;3.92;78.98
36138;BME280;67787;50.074;21.904;2023-12-22T01:52:09;95937.04;;;3.95;78.77
36138;BME280;67787;50.074;21.904;2023-12-22T01:54:37;95943.66;;;3.97;79.02
36138;BME280;67787;50.074;21.904;2023-12-22T01:57:05;95941.70;;;3.99;78.96
36138;BME280;67787;50.074;21.904;2023-12-22T01:59:34;95946.98;;;4.03;78.96
36138;BME280;67787;50.074;21.904;2023-12-22T02:02:02;95946.79;;;4.07;78.86
36138;BME280;67787;50.074;21.904;2023-12-22T02:04:31;95956.23;;;4.09;79.09
36138;BME280;67787;50.074;21.904;2023-12-22T02:07:01;95962.75;;;4.12;78.93
36138;BME280;67787;50.074;21.904;2023-12-22T02:09:29;95961.52;;;4.16;78.92
36138;BME280;67787;50.074;21.904;2023-12-22T02:11:58;95960.73;;;4.21;78.90
36138;BME280;67787;50.074;21.904;2023-12-22T02:14:26;95955.31;;;4.24;78.89
36138;BME280;67787;50.074;21.904;2023-12-22T02:17:05;95955.94;;;4.28;78.79
36138;BME280;67787;50.074;21.904;2023-12-22T02:22:07;95962.79;;;4.36;78.76
36138;BME280;67787;50.074;21.904;2023-12-22T02:24:37;95966.43;;;4.38;78.92
36138;BME280;67787;50.074;21.904;2023-12-22T02:27:33;95962.84;;;4.41;78.83
36138;BME280;67787;50.074;21.904;2023-12-22T02:30:19;95960.70;;;4.44;78.79
36138;BME280;67787;50.074;21.904;2023-12-22T02:32:54;95970.98;;;4.47;78.79
36138;BME280;67787;50.074;21.904;2023-12-22T02:35:25;95970.86;;;4.51;78.70
36138;BME280;67787;50.074;21.904;2023-12-22T02:37:56;95965.48;;;4.53;78.76
36138;BME280;67787;50.074;21.904;2023-12-22T02:40:26;95966.41;;;4.56;78.69
36138;BME280;67787;50.074;21.904;2023-12-22T02:42:54;95955.67;;;4.58;78.74
36138;BME280;67787;50.074;21.904;2023-12-22T02:45:22;95961.29;;;4.60;78.72
36138;BME280;67787;50.074;21.904;2023-12-22T02:47:50;95962.56;;;4.62;78.66
36138;BME280;67787;50.074;21.904;2023-12-22T02:50:18;95970.16;;;4.63;78.72
36138;BME280;67787;50.074;21.904;2023-12-22T02:52:46;95973.04;;;4.64;78.65
36138;BME280;67787;50.074;21.904;2023-12-22T02:55:14;95966.33;;;4.65;78.57
36138;BME280;67787;50.074;21.904;2023-12-22T02:57:42;95965.31;;;4.66;78.58
36138;BME280;67787;50.074;21.904;2023-12-22T03:00:10;95972.91;;;4.66;78.47
36138;BME280;67787;50.074;21.904;2023-12-22T03:02:38;95986.54;;;4.64;78.51
36138;BME280;67787;50.074;21.904;2023-12-22T03:05:06;96001.45;;;4.62;78.32
36138;BME280;67787;50.074;21.904;2023-12-22T03:07:34;96018.77;;;4.59;78.19
36138;BME280;67787;50.074;21.904;2023-12-22T03:10:02;96051.75;;;4.56;78.14
36138;BME280;67787;50.074;21.904;2023-12-22T03:12:30;96057.98;;;4.33;77.50
36138;BME280;67787;50.074;21.904;2023-12-22T03:14:58;96061.30;;;3.82;77.16
36138;BME280;67787;50.074;21.904;2023-12-22T03:17:25;96068.80;;;3.52;77.58
36138;BME280;67787;50.074;21.904;2023-12-22T03:19:53;96077.55;;;3.35;77.80
36138;BME280;67787;50.074;21.904;2023-12-22T03:22:21;96051.02;;;3.16;77.66
36138;BME280;67787;50.074;21.904;2023-12-22T03:24:49;96052.22;;;3.05;77.76
36138;BME280;67787;50.074;21.904;2023-12-22T03:27:17;96065.98;;;2.96;77.82
36138;BME280;67787;50.074;21.904;2023-12-22T03:29:45;96064.10;;;2.85;77.72
36138;BME280;67787;50.074;21.904;2023-12-22T03:32:13;96042.23;;;2.76;77.78
36138;BME280;67787;50.074;21.904;2023-12-22T03:34:41;96019.69;;;2.67;77.76
36138;BME280;67787;50.074;21.904;2023-12-22T03:37:09;96018.23;;;2.64;77.92
36138;BME280;67787;50.074;21.904;2023-12-22T03:39:37;96014.91;;;2.64;77.82
36138;BME280;67787;50.074;21.904;2023-12-22T03:42:05;96012.01;;;2.61;77.73
36138;BME280;67787;50.074;21.904;2023-12-22T03:44:33;96009.47;;;2.58;77.62
36138;BME280;67787;50.074;21.904;2023-12-22T03:47:01;96003.86;;;2.55;77.68
36138;BME280;67787;50.074;21.904;2023-12-22T03:49:28;96009.06;;;2.51;77.46
36138;BME280;67787;50.074;21.904;2023-12-22T03:51:56;96003.60;;;2.46;77.54
36138;BME280;67787;50.074;21.904;2023-12-22T03:54:24;96002.23;;;2.41;77.60
36138;BME280;67787;50.074;21.904;2023-12-22T03:56:52;96001.85;;;2.37;77.64
36138;BME280;67787;50.074;21.904;2023-12-22T03:59:20;96004.02;;;2.35;77.66
36138;BME280;67787;50.074;21.904;2023-12-22T04:01:52;95995.73;;;2.31;77.65
36138;BME280;67787;50.074;21.904;2023-12-22T04:04:25;95993.22;;;2.28;77.76
36138;BME280;67787;50.074;21.904;2023-12-22T04:06:55;95987.07;;;2.25;77.72
36138;BME280;67787;50.074;21.904;2023-12-22T04:09:23;95993.60;;;2.24;77.81
36138;BME280;67787;50.074;21.904;2023-12-22T04:11:51;95996.63;;;2.23;77.62
36138;BME280;67787;50.074;21.904;2023-12-22T04:14:18;95996.39;;;2.24;77.66
36138;BME280;67787;50.074;21.904;2023-12-22T04:16:46;95996.39;;;2.26;77.83
36138;BME280;67787;50.074;21.904;2023-12-22T04:19:14;95996.20;;;2.28;77.60
36138;BME280;67787;50.074;21.904;2023-12-22T04:21:43;95988.29;;;2.31;78.14
36138;BME280;67787;50.074;21.904;2023-12-22T04:24:10;95993.06;;;2.36;77.89
36138;BME280;67787;50.074;21.904;2023-12-22T04:26:38;95990.55;;;2.41;77.90
36138;BME280;67787;50.074;21.904;2023-12-22T04:29:06;95984.98;;;2.48;77.93
36138;BME280;67787;50.074;21.904;2023-12-22T04:31:34;95986.65;;;2.55;77.87
36138;BME280;67787;50.074;21.904;2023-12-22T04:34:02;95993.03;;;2.62;77.97
36138;BME280;67787;50.074;21.904;2023-12-22T04:36:29;95996.23;;;2.69;77.82
36138;BME280;67787;50.074;21.904;2023-12-22T04:38:57;95998.17;;;2.75;77.87
36138;BME280;67787;50.074;21.904;2023-12-22T04:41:25;95998.17;;;2.81;77.94
36138;BME280;67787;50.074;21.904;2023-12-22T04:43:53;96002.80;;;2.88;77.90
36138;BME280;67787;50.074;21.904;2023-12-22T04:46:21;96009.29;;;2.96;78.01
36138;BME280;67787;50.074;21.904;2023-12-22T04:48:49;96025.71;;;3.02;78.12
36138;BME280;67787;50.074;21.904;2023-12-22T04:51:17;96031.28;;;3.10;78.05
36138;BME280;67787;50.074;21.904;2023-12-22T04:53:44;96046.91;;;3.21;77.97
36138;BME280;67787;50.074;21.904;2023-12-22T04:56:12;96050.10;;;3.23;77.68
36138;BME280;67787;50.074;21.904;2023-12-22T04:58:40;96049.33;;;3.14;77.75
36138;BME280;67787;50.074;21.904;2023-12-22T05:01:08;96028.98;;;2.99;77.30
36138;BME280;67787;50.074;21.904;2023-12-22T05:03:36;96033.03;;;2.89;77.67
36138;BME280;67787;50.074;21.904;2023-12-22T05:06:04;96039.45;;;2.83;77.49
36138;BME280;67787;50.074;21.904;2023-12-22T05:08:32;96040.61;;;2.80;77.60
36138;BME280;67787;50.074;21.904;2023-12-22T05:10:59;96046.45;;;2.79;77.51
36138;BME280;67787;50.074;21.904;2023-12-22T05:13:27;96046.59;;;2.80;77.76
36138;BME280;67787;50.074;21.904;2023-12-22T05:15:55;96052.55;;;2.81;77.68
36138;BME280;67787;50.074;21.904;2023-12-22T05:18:24;96057.91;;;2.86;77.55
36138;BME280;67787;50.074;21.904;2023-12-22T05:20:52;96067.74;;;2.92;77.62
36138;BME280;67787;50.074;21.904;2023-12-22T05:23:21;96085.80;;;2.93;77.71
36138;BME280;67787;50.074;21.904;2023-12-22T05:25:49;96087.10;;;2.79;77.32
36138;BME280;67787;50.074;21.904;2023-12-22T05:28:17;96092.69;;;2.57;77.23
36138;BME280;67787;50.074;21.904;2023-12-22T05:30:45;96119.05;;;2.43;77.27
36138;BME280;67787;50.074;21.904;2023-12-22T05:33:13;96120.41;;;2.35;77.56
36138;BME280;67787;50.074;21.904;2023-12-22T05:35:40;96108.04;;;2.31;77.31
36138;BME280;67787;50.074;21.904;2023-12-22T05:38:08;96100.09;;;2.26;77.46
36138;BME280;67787;50.074;21.904;2023-12-22T05:40:36;96100.48;;;2.21;77.57
36138;BME280;67787;50.074;21.904;2023-12-22T05:43:04;96101.02;;;2.17;77.60
36138;BME280;67787;50.074;21.904;2023-12-22T05:45:32;96097.85;;;2.13;77.59
36138;BME280;67787;50.074;21.904;2023-12-22T05:48:00;96095.70;;;2.10;77.91
36138;BME280;67787;50.074;21.904;2023-12-22T05:50:28;96097.68;;;2.09;77.79
36138;BME280;67787;50.074;21.904;2023-12-22T05:52:55;96105.67;;;2.07;77.83
36138;BME280;67787;50.074;21.904;2023-12-22T05:55:23;96107.46;;;2.05;77.68
36138;BME280;67787;50.074;21.904;2023-12-22T05:57:51;96099.86;;;2.04;77.80
36138;BME280;67787;50.074;21.904;2023-12-22T06:00:19;96099.87;;;2.06;77.79
36138;BME280;67787;50.074;21.904;2023-12-22T06:02:47;96113.35;;;2.07;77.92
36138;BME280;67787;50.074;21.904;2023-12-22T06:05:15;96108.10;;;2.07;77.86
36138;BME280;67787;50.074;21.904;2023-12-22T06:07:43;96110.23;;;2.07;77.75
36138;BME280;67787;50.074;21.904;2023-12-22T06:10:11;96107.80;;;2.07;77.67
36138;BME280;67787;50.074;21.904;2023-12-22T06:12:39;96105.29;;;2.08;77.37
36138;BME280;67787;50.074;21.904;2023-12-22T06:15:07;96106.27;;;2.09;77.65
36138;BME280;67787;50.074;21.904;2023-12-22T06:17:34;96103.98;;;2.09;77.79
36138;BME280;67787;50.074;21.904;2023-12-22T06:20:03;96103.62;;;2.11;77.69
36138;BME280;67787;50.074;21.904;2023-12-22T06:22:33;96099.31;;;2.17;77.38
36138;BME280;67787;50.074;21.904;2023-12-22T06:25:01;96093.15;;;2.23;77.71
36138;BME280;67787;50.074;21.904;2023-12-22T06:27:37;96094.68;;;2.30;77.74
36138;BME280;67787;50.074;21.904;2023-12-22T06:30:10;96094.15;;;2.34;77.20
36138;BME280;67787;50.074;21.904;2023-12-22T06:32:38;96092.91;;;2.36;77.70
36138;BME280;67787;50.074;21.904;2023-12-22T06:35:09;96100.19;;;2.39;77.29
36138;BME280;67787;50.074;21.904;2023-12-22T06:37:44;96100.73;;;2.41;77.26
36138;BME280;67787;50.074;21.904;2023-12-22T06:40:12;96106.39;;;2.42;77.46
36138;BME280;67787;50.074;21.904;2023-12-22T06:42:40;96111.48;;;2.42;77.12
36138;BME280;67787;50.074;21.904;2023-12-22T06:45:08;96117.52;;;2.43;77.35
36138;BME280;67787;50.074;21.904;2023-12-22T06:47:38;96126.30;;;2.45;77.36
36138;BME280;67787;50.074;21.904;2023-12-22T06:50:29;96133.16;;;2.46;76.97
36138;BME280;67787;50.074;21.904;2023-12-22T07:00:53;96163.66;;;2.60;77.18
36138;BME280;67787;50.074;21.904;2023-12-22T07:03:31;96172.60;;;2.55;77.16
36138;BME280;67787;50.074;21.904;2023-12-22T07:06:09;96164.66;;;2.54;77.00
36138;BME280;67787;50.074;21.904;2023-12-22T07:08:39;96173.11;;;2.49;77.01
36138;BME280;67787;50.074;21.904;2023-12-22T07:11:08;96175.22;;;2.41;76.80
36138;BME280;67787;50.074;21.904;2023-12-22T07:13:37;96169.27;;;2.31;76.69
36138;BME280;67787;50.074;21.904;2023-12-22T07:16:26;96169.27;;;2.24;76.83
36138;BME280;67787;50.074;21.904;2023-12-22T07:32:37;96185.66;;;2.43;76.38
36138;BME280;67787;50.074;21.904;2023-12-22T07:35:05;96189.45;;;2.34;76.38
36138;BME280;67787;50.074;21.904;2023-12-22T07:37:36;96205.73;;;2.28;76.84
36138;BME280;67787;50.074;21.904;2023-12-22T07:40:06;96213.48;;;2.20;76.63
36138;BME280;67787;50.074;21.904;2023-12-22T07:42:34;96216.16;;;2.14;76.57
36138;BME280;67787;50.074;21.904;2023-12-22T07:45:03;96217.52;;;2.08;76.58
36138;BME280;67787;50.074;21.904;2023-12-22T07:47:33;96220.19;;;2.01;76.42
36138;BME280;67787;50.074;21.904;2023-12-22T07:50:09;96229.00;;;1.94;76.38
36138;BME280;67787;50.074;21.904;2023-12-22T07:52:37;96224.30;;;1.87;76.40
36138;BME280;67787;50.074;21.904;2023-12-22T07:55:08;96234.61;;;1.85;76.51
36138;BME280;67787;50.074;21.904;2023-12-22T07:57:38;96238.05;;;1.81;76.44
36138;BME280;67787;50.074;21.904;2023-12-22T08:00:10;96245.21;;;1.80;76.54
36138;BME280;67787;50.074;21.904;2023-12-22T08:02:38;96252.55;;;1.77;76.35
36138;BME280;67787;50.074;21.904;2023-12-22T08:05:06;96254.02;;;1.76;76.64
36138;BME280;67787;50.074;21.904;2023-12-22T08:07:35;96255.61;;;1.74;76.47
36138;BME280;67787;50.074;21.904;2023-12-22T08:10:07;96265.52;;;1.72;76.48
36138;BME280;67787;50.074;21.904;2023-12-22T08:12:42;96269.54;;;1.72;76.61
36138;BME280;67787;50.074;21.904;2023-12-22T08:15:11;96264.73;;;1.75;76.47
36138;BME280;67787;50.074;21.904;2023-12-22T08:17:59;96262.89;;;1.79;76.46
36138;BME280;67787;50.074;21.904;2023-12-22T08:20:27;96262.90;;;1.81;76.48
36138;BME280;67787;50.074;21.904;2023-12-22T08:23:04;96265.63;;;1.84;76.43
36138;BME280;67787;50.074;21.904;2023-12-22T08:25:37;96265.38;;;1.89;76.38
36138;BME280;67787;50.074;21.904;2023-12-22T08:28:07;96268.18;;;1.93;76.24
36138;BME280;67787;50.074;21.904;2023-12-22T08:30:36;96272.49;;;1.98;76.30
36138;BME280;67787;50.074;21.904;2023-12-22T08:33:04;96276.33;;;2.01;76.27
36138;BME280;67787;50.074;21.904;2023-12-22T08:35:32;96274.14;;;2.02;76.21
36138;BME280;67787;50.074;21.904;2023-12-22T08:38:04;96275.14;;;2.06;76.43
36138;BME280;67787;50.074;21.904;2023-12-22T08:40:37;96273.38;;;2.11;76.21
36138;BME280;67787;50.074;21.904;2023-12-22T08:43:09;96271.05;;;2.14;76.03
36138;BME280;67787;50.074;21.904;2023-12-22T08:45:39;96277.79;;;2.15;75.96
36138;BME280;67787;50.074;21.904;2023-12-22T08:48:09;96275.41;;;2.18;76.25
36138;BME280;67787;50.074;21.904;2023-12-22T08:50:37;96275.69;;;2.21;75.91
36138;BME280;67787;50.074;21.904;2023-12-22T08:53:05;96271.14;;;2.23;76.07
36138;BME280;67787;50.074;21.904;2023-12-22T08:55:33;96274.73;;;2.26;75.84
36138;BME280;67787;50.074;21.904;2023-12-22T08:58:04;96267.52;;;2.29;75.67
36138;BME280;67787;50.074;21.904;2023-12-22T09:00:33;96266.80;;;2.31;75.72
36138;BME280;67787;50.074;21.904;2023-12-22T09:03:03;96262.55;;;2.34;75.62
36138;BME280;67787;50.074;21.904;2023-12-22T09:05:32;96263.50;;;2.37;75.70
36138;BME280;67787;50.074;21.904;2023-12-22T09:08:02;96258.15;;;2.41;75.56
36138;BME280;67787;50.074;21.904;2023-12-22T09:10:30;96266.45;;;2.44;75.24
36138;BME280;67787;50.074;21.904;2023-12-22T09:13:06;96275.27;;;2.47;75.20
36138;BME280;67787;50.074;21.904;2023-12-22T09:15:36;96270.84;;;2.50;75.08
36138;BME280;67787;50.074;21.904;2023-12-22T09:18:05;96276.84;;;2.56;75.20
36138;BME280;67787;50.074;21.904;2023-12-22T09:20:36;96276.95;;;2.61;74.85
36138;BME280;67787;50.074;21.904;2023-12-22T09:23:13;96273.98;;;2.64;74.88
36138;BME280;67787;50.074;21.904;2023-12-22T09:26:02;96266.66;;;2.70;75.05
36138;BME280;67787;50.074;21.904;2023-12-22T09:28:31;96268.31;;;2.72;74.48
36138;BME280;67787;50.074;21.904;2023-12-22T09:31:22;96262.95;;;2.79;74.36
36138;BME280;67787;50.074;21.904;2023-12-22T09:33:54;96271.85;;;2.81;74.58
36138;BME280;67787;50.074;21.904;2023-12-22T09:36:23;96268.80;;;2.86;74.88
36138;BME280;67787;50.074;21.904;2023-12-22T09:38:51;96270.13;;;2.91;74.55
36138;BME280;67787;50.074;21.904;2023-12-22T09:41:20;96269.69;;;2.94;74.41
36138;BME280;67787;50.074;21.904;2023-12-22T09:43:51;96270.48;;;2.97;74.02
36138;BME280;67787;50.074;21.904;2023-12-22T09:46:30;96279.92;;;3.00;74.05
36138;BME280;67787;50.074;21.904;2023-12-22T09:49:02;96275.85;;;3.02;74.08
36138;BME280;67787;50.074;21.904;2023-12-22T09:51:31;96275.44;;;3.03;73.84
36138;BME280;67787;50.074;21.904;2023-12-22T09:54:02;96273.86;;;3.05;74.00
36138;BME280;67787;50.074;21.904;2023-12-22T09:56:32;96269.48;;;3.09;73.39
36138;BME280;67787;50.074;21.904;2023-12-22T09:59:01;96271.86;;;3.12;73.99
36138;BME280;67787;50.074;21.904;2023-12-22T10:01:30;96274.30;;;3.16;73.79
36138;BME280;67787;50.074;21.904;2023-12-22T10:03:59;96276.50;;;3.19;73.72
36138;BME280;67787;50.074;21.904;2023-12-22T10:06:27;96279.25;;;3.24;73.67
36138;BME280;67787;50.074;21.904;2023-12-22T10:08:55;96274.00;;;3.28;73.54
36138;BME280;67787;50.074;21.904;2023-12-22T10:11:25;96277.77;;;3.33;73.18
36138;BME280;67787;50.074;21.904;2023-12-22T10:13:55;96277.41;;;3.37;72.87
36138;BME280;67787;50.074;21.904;2023-12-22T10:16:23;96276.69;;;3.41;73.18
36138;BME280;67787;50.074;21.904;2023-12-22T10:18:51;96273.02;;;3.45;72.94
36138;BME280;67787;50.074;21.904;2023-12-22T10:21:19;96271.21;;;3.48;73.05
36138;BME280;67787;50.074;21.904;2023-12-22T10:23:49;96264.73;;;3.48;72.31
36138;BME280;67787;50.074;21.904;2023-12-22T10:26:17;96267.70;;;3.46;72.45
36138;BME280;67787;50.074;21.904;2023-12-22T10:28:47;96262.83;;;3.47;72.46
36138;BME280;67787;50.074;21.904;2023-12-22T10:31:18;96260.23;;;3.51;72.40
36138;BME280;67787;50.074;21.904;2023-12-22T10:33:46;96262.57;;;3.56;72.73
36138;BME280;67787;50.074;21.904;2023-12-22T10:36:14;96260.69;;;3.58;71.99
36138;BME280;67787;50.074;21.904;2023-12-22T10:38:42;96250.98;;;3.55;71.99
36138;BME280;67787;50.074;21.904;2023-12-22T10:41:10;96250.83;;;3.56;71.90
36138;BME280;67787;50.074;21.904;2023-12-22T10:43:39;96248.85;;;3.59;71.67
36138;BME280;67787;50.074;21.904;2023-12-22T10:46:08;96235.27;;;3.62;71.82
36138;BME280;67787;50.074;21.904;2023-12-22T10:48:42;96228.07;;;3.66;71.73
36138;BME280;67787;50.074;21.904;2023-12-22T10:51:11;96224.85;;;3.68;71.67
36138;BME280;67787;50.074;21.904;2023-12-22T10:53:42;96219.73;;;3.72;71.59
36138;BME280;67787;50.074;21.904;2023-12-22T10:56:11;96222.83;;;3.77;71.85
36138;BME280;67787;50.074;21.904;2023-12-22T10:58:39;96227.05;;;3.79;71.74
36138;BME280;67787;50.074;21.904;2023-12-22T11:03:35;96224.20;;;3.84;71.61
36138;BME280;67787;50.074;21.904;2023-12-22T11:06:09;96223.77;;;3.84;71.73
36138;BME280;67787;50.074;21.904;2023-12-22T11:08:39;96220.98;;;3.88;71.91
36138;BME280;67787;50.074;21.904;2023-12-22T11:11:16;96225.06;;;3.92;71.71
36138;BME280;67787;50.074;21.904;2023-12-22T11:13:47;96228.86;;;3.90;71.71
36138;BME280;67787;50.074;21.904;2023-12-22T11:16:17;96235.73;;;3.88;71.47
36138;BME280;67787;50.074;21.904;2023-12-22T11:18:46;96235.73;;;3.82;71.36
36138;BME280;67787;50.074;21.904;2023-12-22T11:21:18;96237.70;;;3.76;71.44
36138;BME280;67787;50.074;21.904;2023-12-22T11:23:47;96236.39;;;3.75;71.38
36138;BME280;67787;50.074;21.904;2023-12-22T11:26:17;96241.88;;;3.72;71.34
36138;BME280;67787;50.074;21.904;2023-12-22T11:28:47;96231.06;;;3.68;71.68
36138;BME280;67787;50.074;21.904;2023-12-22T11:31:15;96228.08;;;3.64;71.68
36138;BME280;67787;50.074;21.904;2023-12-22T11:33:45;96225.06;;;3.60;71.35
36138;BME280;67787;50.074;21.904;2023-12-22T11:36:31;96223.56;;;3.57;71.68
36138;BME280;67787;50.074;21.904;2023-12-22T11:38:59;96216.44;;;3.54;71.47
36138;BME280;67787;50.074;21.904;2023-12-22T11:41:30;96210.45;;;3.53;71.37
36138;BME280;67787;50.074;21.904;2023-12-22T11:44:01;96203.27;;;3.53;71.51
36138;BME280;67787;50.074;21.904;2023-12-22T11:46:32;96204.33;;;3.51;71.42
36138;BME280;67787;50.074;21.904;2023-12-22T11:49:02;96199.50;;;3.48;71.22
36138;BME280;67787;50.074;21.904;2023-12-22T11:51:33;96203.06;;;3.46;71.27
36138;BME280;67787;50.074;21.904;2023-12-22T11:54:43;96199.94;;;3.45;71.40
36138;BME280;67787;50.074;21.904;2023-12-22T11:57:30;96198.55;;;3.45;71.09
36138;BME280;67787;50.074;21.904;2023-12-22T12:02:30;96200.30;;;3.43;71.46
36138;BME280;67787;50.074;21.904;2023-12-22T12:04:59;96199.33;;;3.42;71.26
36138;BME280;67787;50.074;21.904;2023-12-22T12:07:47;96201.93;;;3.41;71.37
36138;BME280;67787;50.074;21.904;2023-12-22T12:13:10;96210.60;;;3.39;71.41
36138;BME280;67787;50.074;21.904;2023-12-22T12:15:38;96216.30;;;3.38;71.25
36138;BME280;67787;50.074;21.904;2023-12-22T12:18:06;96207.55;;;3.36;71.45
36138;BME280;67787;50.074;21.904;2023-12-22T12:20:34;96207.49;;;3.35;71.10
36138;BME280;67787;50.074;21.904;2023-12-22T12:23:03;96208.49;;;3.32;71.28
36138;BME280;67787;50.074;21.904;2023-12-22T12:25:34;96203.01;;;3.32;71.14
36138;BME280;67787;50.074;21.904;2023-12-22T12:28:08;96204.01;;;3.33;71.21
36138;BME280;67787;50.074;21.904;2023-12-22T12:30:38;96202.40;;;3.36;71.41
36138;BME280;67787;50.074;21.904;2023-12-22T12:33:07;96188.52;;;3.40;71.19
36138;BME280;67787;50.074;21.904;2023-12-22T12:35:40;96172.00;;;3.44;71.40
36138;BME280;67787;50.074;21.904;2023-12-22T12:38:14;96174.48;;;3.48;71.31
36138;BME280;67787;50.074;21.904;2023-12-22T12:40:45;96178.60;;;3.49;71.00
36138;BME280;67787;50.074;21.904;2023-12-22T12:43:17;96178.70;;;3.50;71.00
36138;BME280;67787;50.074;21.904;2023-12-22T12:45:46;96178.60;;;3.47;70.95
36138;BME280;67787;50.074;21.904;2023-12-22T12:48:16;96181.19;;;3.46;71.06
36138;BME280;67787;50.074;21.904;2023-12-22T12:50:45;96180.34;;;3.47;71.02
36138;BME280;67787;50.074;21.904;2023-12-22T12:53:15;96177.15;;;3.46;70.81
36138;BME280;67787;50.074;21.904;2023-12-22T12:55:43;96174.82;;;3.42;70.41
36138;BME280;67787;50.074;21.904;2023-12-22T12:58:11;96168.98;;;3.37;70.74
36138;BME280;67787;50.074;21.904;2023-12-22T13:00:39;96170.41;;;3.33;70.71
36138;BME280;67787;50.074;21.904;2023-12-22T13:03:07;96170.35;;;3.29;70.80
36138;BME280;67787;50.074;21.904;2023-12-22T13:05:35;96170.11;;;3.26;70.78
36138;BME280;67787;50.074;21.904;2023-12-22T13:08:08;96172.10;;;3.22;70.64
36138;BME280;67787;50.074;21.904;2023-12-22T13:10:37;96178.11;;;3.17;70.49
36138;BME280;67787;50.074;21.904;2023-12-22T13:13:06;96185.81;;;3.13;70.67
36138;BME280;67787;50.074;21.904;2023-12-22T13:15:34;96184.85;;;3.10;70.68
36138;BME280;67787;50.074;21.904;2023-12-22T13:18:02;96185.80;;;3.09;70.59
36138;BME280;67787;50.074;21.904;2023-12-22T13:20:30;96194.58;;;3.08;70.41
36138;BME280;67787;50.074;21.904;2023-12-22T13:22:59;96189.44;;;3.07;70.41
36138;BME280;67787;50.074;21.904;2023-12-22T13:25:26;96188.38;;;3.03;70.23
36138;BME280;67787;50.074;21.904;2023-12-22T13:27:54;96193.30;;;2.97;70.43
36138;BME280;67787;50.074;21.904;2023-12-22T13:30:37;96187.86;;;2.95;70.19
36138;BME280;67787;50.074;21.904;2023-12-22T13:33:08;96182.50;;;2.93;70.52
36138;BME280;67787;50.074;21.904;2023-12-22T13:35:37;96188.21;;;2.85;70.27
36138;BME280;67787;50.074;21.904;2023-12-22T13:38:09;96192.17;;;2.78;70.15
36138;BME280;67787;50.074;21.904;2023-12-22T13:40:39;96202.42;;;2.73;70.50
36138;BME280;67787;50.074;21.904;2023-12-22T13:43:11;96206.55;;;2.69;70.17
36138;BME280;67787;50.074;21.904;2023-12-22T13:45:42;96211.75;;;2.68;70.26